Seisyu Maru — JD3882 — position and weather

sailwx.info

Track history (hours):
 
Tides and Currents Weather Stations Pressure Air Temp Water Temp Dewpoint Dewpoint Depression Visibility Wind Speed Wind Dir Waves Ship Positions

Seisyu Maru

Last reported at 2017-Dec-11 17:00 UTC. Time now 2017-Dec-12 19:48 UTC.
Position N 35°05' E 136°53'.

Length 84 m; draft 5 m.

Type: Cargo ship. MMSI: 431006647.

Date/timePositionNaut miles runAvg speedWind from/ knotsBaromVisibWave heightAir tempDewpointWater temp
2017-Dec-11 17:00N 35°05' E 136°53'0 0.0
2017-Dec-11 16:30N 35°05' E 136°53'0 0.0
2017-Dec-11 16:00N 35°05' E 136°53'0 0.0
2017-Dec-11 15:30N 35°05' E 136°53'0 0.0
2017-Dec-11 15:00N 35°05' E 136°53'0 0.0
2017-Dec-11 14:30N 35°05' E 136°53'0 0.0
2017-Dec-11 14:00N 35°05' E 136°53'0 0.0
2017-Dec-11 13:30N 35°05' E 136°53'0 0.0
2017-Dec-11 13:00N 35°05' E 136°53'0 0.0
2017-Dec-11 12:30N 35°05' E 136°53'0 0.0
2017-Dec-11 12:00N 35°05' E 136°53'0 0.1
2017-Dec-11 11:30N 35°05' E 136°53'0 0.0
2017-Dec-11 11:00N 35°05' E 136°53'0 0.1
2017-Dec-11 10:30N 35°05' E 136°53'0 0.1
2017-Dec-11 10:00N 35°05' E 136°53'2 4.2
2017-Dec-11 09:30N 35°03' E 136°52'1 2.9
2017-Dec-11 09:01N 35°03' E 136°50'0 0.0
2017-Dec-11 08:30N 35°03' E 136°50'0 0.0
2017-Dec-11 08:00N 35°03' E 136°50'0 0.0
2017-Dec-11 07:30N 35°03' E 136°50'0 0.0
2017-Dec-11 07:00N 35°03' E 136°50'0 0.0
2017-Dec-11 06:30N 35°03' E 136°50'0 0.0
2017-Dec-11 06:00N 35°03' E 136°50'0 0.0
2017-Dec-11 05:30N 35°03' E 136°50'0 0.0
2017-Dec-11 05:00N 35°03' E 136°50'0 0.0
2017-Dec-11 04:30N 35°03' E 136°50'0 0.0
2017-Dec-11 04:00N 35°03' E 136°50'0 0.0
2017-Dec-11 03:30N 35°03' E 136°50'0 0.0
2017-Dec-11 03:00N 35°03' E 136°50'0 0.0
2017-Dec-11 02:30N 35°03' E 136°50'0 0.0
2017-Dec-11 02:00N 35°03' E 136°50'0 0.0
2017-Dec-11 01:30N 35°03' E 136°50'0 0.0
2017-Dec-11 01:00N 35°03' E 136°50'0 0.0
2017-Dec-11 00:30N 35°03' E 136°50'0 0.0
2017-Dec-10 23:57N 35°03' E 136°50'0 0.0
2017-Dec-10 23:30N 35°03' E 136°50'1 1.2
2017-Dec-10 23:01N 35°03' E 136°50'510.0
2017-Dec-10 22:31N 34°58' E 136°48'1 1.8
2017-Dec-10 21:58N 34°58' E 136°47'0 0.0
2017-Dec-10 21:28N 34°58' E 136°47'0 0.0
2017-Dec-10 20:55N 34°58' E 136°47'0 0.0
2017-Dec-10 20:28N 34°58' E 136°47'0 0.0
2017-Dec-10 19:58N 34°58' E 136°47'0 0.0
2017-Dec-10 19:28N 34°58' E 136°47'0 0.0
2017-Dec-10 18:58N 34°58' E 136°47'0 0.0
2017-Dec-10 18:28N 34°58' E 136°47'0 0.0
2017-Dec-10 17:58N 34°58' E 136°47'0 0.0
2017-Dec-10 17:28N 34°58' E 136°47'0 0.0
2017-Dec-10 16:58N 34°58' E 136°47'0 0.0
2017-Dec-10 16:28N 34°58' E 136°47'0 0.0
2017-Dec-10 15:58N 34°58' E 136°47'0 0.0
2017-Dec-10 15:28N 34°58' E 136°47'0 0.1
2017-Dec-10 15:00N 34°58' E 136°47'3 5.7
2017-Dec-10 14:30N 34°55' E 136°47'611.6
2017-Dec-10 14:00N 34°49' E 136°48'612.4
2017-Dec-10 13:30N 34°43' E 136°50'102 8.0
2017-Dec-10 00:46N 33°54' E 135°02'312.6
2017-Dec-10 00:30N 33°57' E 135°01'612.4
2017-Dec-10 00:00N 34°03' E 135°00'612.7
2017-Dec-09 23:30N 34°09' E 134°59'713.6
2017-Dec-09 23:00N 34°16' E 134°58'713.1
2017-Dec-09 22:30N 34°23' E 134°60'612.7
2017-Dec-09 22:00N 34°29' E 135°02'612.9
2017-Dec-09 21:30N 34°35' E 135°03'713.2
2017-Dec-09 21:01N 34°36' E 134°55'713.9
2017-Dec-09 20:30N 34°40' E 134°48'612.9
2017-Dec-09 20:00N 34°43' E 134°41'5 9.4
2017-Dec-09 19:30N 34°47' E 134°38'0 0.5
2017-Dec-09 19:00N 34°47' E 134°39'0 0.0
2017-Dec-09 16:04N 34°47' E 134°39'0 0.0
2017-Dec-09 15:46N 34°47' E 134°39'0 0.0
2017-Dec-09 15:10N 34°47' E 134°39'0 0.0
2017-Dec-09 08:04N 34°47' E 134°39'0 0.0
2017-Dec-09 05:04N 34°47' E 134°39'0 0.0
2017-Dec-08 22:16N 34°47' E 134°39'0 1.5
2017-Dec-08 22:00N 34°47' E 134°38'1 2.5
2017-Dec-08 21:30N 34°46' E 134°38'1 1.2
2017-Dec-08 21:00N 34°45' E 134°38'0 0.0
2017-Dec-08 20:18N 34°45' E 134°38'0 0.0
2017-Dec-08 20:00N 34°45' E 134°38'0 0.0
2017-Dec-08 19:30N 34°45' E 134°38'0 0.0
2017-Dec-08 18:54N 34°45' E 134°38'0 0.0
2017-Dec-08 18:12N 34°45' E 134°38'0 0.0
2017-Dec-08 18:00N 34°45' E 134°38'0 0.0
2017-Dec-08 16:48N 34°45' E 134°38'0 0.0
2017-Dec-08 16:24N 34°45' E 134°38'0 0.0
2017-Dec-08 16:00N 34°45' E 134°38'0 0.0
2017-Dec-08 15:30N 34°45' E 134°38'0 0.0
2017-Dec-08 14:54N 34°45' E 134°38'0 0.0
2017-Dec-08 14:24N 34°45' E 134°38'0 0.1
2017-Dec-08 13:54N 34°45' E 134°38'0 0.0
2017-Dec-08 12:48N 34°45' E 134°38'0 0.3
2017-Dec-08 12:30N 34°45' E 134°38'2 2.7
2017-Dec-08 11:52N 34°47' E 134°38'0 0.0
2017-Dec-08 09:39N 34°47' E 134°38'0 0.0
2017-Dec-08 04:21N 34°47' E 134°38'0 0.0
2017-Dec-08 01:39N 34°47' E 134°38'0 0.1
2017-Dec-08 00:42N 34°47' E 134°38'1 3.0
2017-Dec-08 00:30N 34°46' E 134°38'2 2.6
2017-Dec-07 23:54N 34°45' E 134°39'0 0.0
2017-Dec-07 22:57N 34°45' E 134°39'0 0.0
2017-Dec-07 22:24N 34°45' E 134°39'0 0.0
2017-Dec-07 21:54N 34°45' E 134°39'0 0.0
2017-Dec-07 21:30N 34°45' E 134°39'0 0.1
2017-Dec-07 20:54N 34°45' E 134°39'0 0.1
2017-Dec-07 20:30N 34°45' E 134°39'0 0.0
2017-Dec-07 20:00N 34°45' E 134°39'0 0.1
2017-Dec-07 19:30N 34°45' E 134°39'0 0.0
2017-Dec-07 17:24N 34°45' E 134°39'0 0.0
2017-Dec-07 16:54N 34°45' E 134°39'0 0.0
2017-Dec-07 16:24N 34°45' E 134°39'0 0.0
2017-Dec-07 16:00N 34°45' E 134°39'0 0.1
2017-Dec-07 15:30N 34°45' E 134°39'0 0.0
2017-Dec-07 14:48N 34°45' E 134°39'0 0.0
2017-Dec-07 14:18N 34°45' E 134°39'0 0.0
2017-Dec-07 13:12N 34°45' E 134°39'0 0.0
2017-Dec-07 12:18N 34°45' E 134°39'0 0.0
2017-Dec-07 12:00N 34°45' E 134°39'0 0.0
2017-Dec-07 10:40N 34°45' E 134°39'0 2.1
2017-Dec-07 10:30N 34°45' E 134°39'611.0
2017-Dec-07 10:00N 34°41' E 134°44'612.0
2017-Dec-07 09:30N 34°38' E 134°50'611.4
2017-Dec-07 09:00N 34°37' E 134°57'5 9.8
2017-Dec-07 08:30N 34°37' E 135°03'5 9.5
2017-Dec-07 08:00N 34°32' E 135°05'612.4
2017-Dec-07 07:30N 34°26' E 135°05'611.7
2017-Dec-07 07:00N 34°20' E 135°04'510.9
2017-Dec-07 06:30N 34°15' E 135°03'3 6.7
2017-Dec-07 06:00N 34°15' E 135°07'0 0.1
2017-Dec-07 05:30N 34°15' E 135°07'0 0.0
2017-Dec-07 04:58N 34°15' E 135°07'0 0.0
2017-Dec-07 04:30N 34°15' E 135°07'0 0.0
2017-Dec-07 04:00N 34°15' E 135°07'0 0.0
2017-Dec-07 03:30N 34°15' E 135°07'0 0.0
2017-Dec-07 03:01N 34°15' E 135°07'0 0.0
2017-Dec-07 02:30N 34°15' E 135°07'0 0.0
2017-Dec-07 02:00N 34°15' E 135°07'0 0.0
2017-Dec-07 01:30N 34°15' E 135°07'0 0.0
2017-Dec-07 01:00N 34°15' E 135°07'0 0.0
2017-Dec-07 00:28N 34°15' E 135°07'0 0.0
2017-Dec-07 00:01N 34°15' E 135°07'0 0.0
2017-Dec-06 23:30N 34°15' E 135°07'0 0.0
2017-Dec-06 23:00N 34°15' E 135°07'0 0.0
2017-Dec-06 22:30N 34°15' E 135°07'0 0.1
2017-Dec-06 22:00N 34°15' E 135°07'2 4.2
2017-Dec-06 21:30N 34°15' E 135°05'1 1.4
2017-Dec-06 21:00N 34°14' E 135°04'  
2017-Dec-04 10:30N 34°30' E 134°41'612.4
2017-Dec-04 10:00N 34°28' E 134°34'9411.7
2017-Dec-04 02:01N 34°01' E 132°46'114.0
2017-Dec-04 01:57N 33°60' E 132°45'613.9
2017-Dec-04 01:30N 33°56' E 132°40'713.5
2017-Dec-04 01:00N 33°51' E 132°34'713.2
2017-Dec-04 00:28N 33°46' E 132°27'613.4
2017-Dec-03 23:59N 33°43' E 132°21'2513.6
2017-Dec-03 22:10N 33°29' E 131°57'314.0
2017-Dec-03 21:57N 33°27' E 131°54'613.3
2017-Dec-03 21:30N 33°23' E 131°48'712.5
2017-Dec-03 20:58N 33°19' E 131°42'4 5.1
2017-Dec-03 20:17N 33°16' E 131°40'0 0.0
2017-Dec-03 16:23N 33°16' E 131°40'0 0.0
2017-Dec-03 14:42N 33°16' E 131°40'0 1.3
2017-Dec-03 14:25N 33°16' E 131°40'1 2.7
2017-Dec-03 14:00N 33°17' E 131°40'4 8.8
2017-Dec-03 13:30N 33°20' E 131°43'613.1
2017-Dec-03 13:01N 33°23' E 131°50'713.6
2017-Dec-03 12:30N 33°27' E 131°57'1013.7
2017-Dec-03 11:44N 33°34' E 132°07'313.2
2017-Dec-03 11:30N 33°35' E 132°10'713.1
2017-Dec-03 10:59N 33°39' E 132°16'612.7
2017-Dec-03 10:29N 33°43' E 132°22'1012.6
2017-Dec-03 09:40N 33°50' E 132°32'412.5
2017-Dec-03 09:23N 33°52' E 132°35'512.7
2017-Dec-03 09:00N 33°56' E 132°39'612.5
2017-Dec-03 08:30N 34°00' E 132°44'7611.8
2017-Dec-03 02:08N 34°25' E 134°10'212.7
2017-Dec-03 01:57N 34°25' E 134°13'612.8
2017-Dec-03 01:27N 34°24' E 134°21'713.5
2017-Dec-03 00:57N 34°27' E 134°28'613.6
2017-Dec-03 00:30N 34°29' E 134°35'713.9
2017-Dec-03 00:01N 34°32' E 134°43'815.6
2017-Dec-02 23:30N 34°35' E 134°52'816.0
2017-Dec-02 23:01N 34°37' E 135°01'713.5
2017-Dec-02 22:31N 34°32' E 135°05'714.2
2017-Dec-02 22:00N 34°25' E 135°03'713.7
2017-Dec-02 21:30N 34°18' E 134°60'714.2
2017-Dec-02 21:00N 34°11' E 134°60'713.9
2017-Dec-02 20:30N 34°04' E 135°00'714.0
2017-Dec-02 19:59N 33°57' E 135°01'100 8.1
2017-Dec-02 07:38N 34°41' E 136°50'313.9
2017-Dec-02 07:26N 34°43' E 136°48'613.6
2017-Dec-02 07:00N 34°48' E 136°45'713.7
2017-Dec-02 06:30N 34°55' E 136°46'713.4
2017-Dec-02 06:00N 35°01' E 136°50'2 4.7
2017-Dec-02 05:30N 35°03' E 136°50'0 0.0
2017-Dec-02 05:00N 35°03' E 136°50'0 0.0
2017-Dec-02 04:30N 35°03' E 136°50'0 0.0
2017-Dec-02 04:00N 35°03' E 136°50'0 0.0
2017-Dec-02 03:30N 35°03' E 136°50'0 0.0
2017-Dec-02 03:00N 35°03' E 136°50'0 0.0
2017-Dec-02 02:29N 35°03' E 136°50'0 0.0
2017-Dec-02 02:00N 35°03' E 136°50'0 0.0
2017-Dec-02 01:30N 35°03' E 136°50'0 0.0
2017-Dec-02 01:00N 35°03' E 136°50'0 0.0
2017-Dec-02 00:30N 35°03' E 136°50'0 0.0
2017-Dec-02 00:00N 35°03' E 136°50'0 0.0
2017-Dec-01 23:30N 35°03' E 136°50'1 1.1
2017-Dec-01 23:00N 35°03' E 136°50'4 8.3
2017-Dec-01 22:30N 34°59' E 136°49'2 3.5
2017-Dec-01 22:00N 34°58' E 136°47'0 0.0
2017-Dec-01 21:30N 34°58' E 136°47'0 0.0
2017-Dec-01 21:00N 34°58' E 136°47'0 0.3
2017-Dec-01 20:30N 34°57' E 136°47'510.7
2017-Dec-01 20:00N 34°52' E 136°47'611.9
2017-Dec-01 19:30N 34°46' E 136°48'612.1
2017-Dec-01 19:00N 34°41' E 136°52'1112.4
2017-Dec-01 18:06N 34°33' E 137°02'212.7
2017-Dec-01 17:54N 34°33' E 137°05'512.4
2017-Dec-01 17:30N 34°33' E 137°11'  
Track history (hours):
 
Tides and Currents Weather Stations Pressure Air Temp Water Temp Dewpoint Dewpoint Depression Visibility Wind Speed Wind Dir Waves Ship Positions

Seisyu Maru

Last reported at 2017-Dec-11 17:00 UTC. Time now 2017-Dec-12 19:48 UTC.
Position N 35°05' E 136°53'.

Length 84 m; draft 5 m.

Type: Cargo ship. MMSI: 431006647.

Date/timePositionNaut miles runAvg speedWind from/ knotsBaromVisibWave heightAir tempDewpointWater temp
2017-Dec-11 17:00N 35°05' E 136°53'0 0.0
2017-Dec-11 16:30N 35°05' E 136°53'0 0.0
2017-Dec-11 16:00N 35°05' E 136°53'0 0.0
2017-Dec-11 15:30N 35°05' E 136°53'0 0.0
2017-Dec-11 15:00N 35°05' E 136°53'0 0.0
2017-Dec-11 14:30N 35°05' E 136°53'0 0.0
2017-Dec-11 14:00N 35°05' E 136°53'0 0.0
2017-Dec-11 13:30N 35°05' E 136°53'0 0.0
2017-Dec-11 13:00N 35°05' E 136°53'0 0.0
2017-Dec-11 12:30N 35°05' E 136°53'0 0.0
2017-Dec-11 12:00N 35°05' E 136°53'0 0.1
2017-Dec-11 11:30N 35°05' E 136°53'0 0.0
2017-Dec-11 11:00N 35°05' E 136°53'0 0.1
2017-Dec-11 10:30N 35°05' E 136°53'0 0.1
2017-Dec-11 10:00N 35°05' E 136°53'2 4.2
2017-Dec-11 09:30N 35°03' E 136°52'1 2.9
2017-Dec-11 09:01N 35°03' E 136°50'0 0.0
2017-Dec-11 08:30N 35°03' E 136°50'0 0.0
2017-Dec-11 08:00N 35°03' E 136°50'0 0.0
2017-Dec-11 07:30N 35°03' E 136°50'0 0.0
2017-Dec-11 07:00N 35°03' E 136°50'0 0.0
2017-Dec-11 06:30N 35°03' E 136°50'0 0.0
2017-Dec-11 06:00N 35°03' E 136°50'0 0.0
2017-Dec-11 05:30N 35°03' E 136°50'0 0.0
2017-Dec-11 05:00N 35°03' E 136°50'0 0.0
2017-Dec-11 04:30N 35°03' E 136°50'0 0.0
2017-Dec-11 04:00N 35°03' E 136°50'0 0.0
2017-Dec-11 03:30N 35°03' E 136°50'0 0.0
2017-Dec-11 03:00N 35°03' E 136°50'0 0.0
2017-Dec-11 02:30N 35°03' E 136°50'0 0.0
2017-Dec-11 02:00N 35°03' E 136°50'0 0.0
2017-Dec-11 01:30N 35°03' E 136°50'0 0.0
2017-Dec-11 01:00N 35°03' E 136°50'0 0.0
2017-Dec-11 00:30N 35°03' E 136°50'0 0.0
2017-Dec-10 23:57N 35°03' E 136°50'0 0.0
2017-Dec-10 23:30N 35°03' E 136°50'1 1.2
2017-Dec-10 23:01N 35°03' E 136°50'510.0
2017-Dec-10 22:31N 34°58' E 136°48'1 1.8
2017-Dec-10 21:58N 34°58' E 136°47'0 0.0
2017-Dec-10 21:28N 34°58' E 136°47'0 0.0
2017-Dec-10 20:55N 34°58' E 136°47'0 0.0
2017-Dec-10 20:28N 34°58' E 136°47'0 0.0
2017-Dec-10 19:58N 34°58' E 136°47'0 0.0
2017-Dec-10 19:28N 34°58' E 136°47'0 0.0
2017-Dec-10 18:58N 34°58' E 136°47'0 0.0
2017-Dec-10 18:28N 34°58' E 136°47'0 0.0
2017-Dec-10 17:58N 34°58' E 136°47'0 0.0
2017-Dec-10 17:28N 34°58' E 136°47'0 0.0
2017-Dec-10 16:58N 34°58' E 136°47'0 0.0
2017-Dec-10 16:28N 34°58' E 136°47'0 0.0
2017-Dec-10 15:58N 34°58' E 136°47'0 0.0
2017-Dec-10 15:28N 34°58' E 136°47'0 0.1
2017-Dec-10 15:00N 34°58' E 136°47'3 5.7
2017-Dec-10 14:30N 34°55' E 136°47'611.6
2017-Dec-10 14:00N 34°49' E 136°48'612.4
2017-Dec-10 13:30N 34°43' E 136°50'102 8.0
2017-Dec-10 00:46N 33°54' E 135°02'312.6
2017-Dec-10 00:30N 33°57' E 135°01'612.4
2017-Dec-10 00:00N 34°03' E 135°00'612.7
2017-Dec-09 23:30N 34°09' E 134°59'713.6
2017-Dec-09 23:00N 34°16' E 134°58'713.1
2017-Dec-09 22:30N 34°23' E 134°60'612.7
2017-Dec-09 22:00N 34°29' E 135°02'612.9
2017-Dec-09 21:30N 34°35' E 135°03'713.2
2017-Dec-09 21:01N 34°36' E 134°55'713.9
2017-Dec-09 20:30N 34°40' E 134°48'612.9
2017-Dec-09 20:00N 34°43' E 134°41'5 9.4
2017-Dec-09 19:30N 34°47' E 134°38'0 0.5
2017-Dec-09 19:00N 34°47' E 134°39'0 0.0
2017-Dec-09 16:04N 34°47' E 134°39'0 0.0
2017-Dec-09 15:46N 34°47' E 134°39'0 0.0
2017-Dec-09 15:10N 34°47' E 134°39'0 0.0
2017-Dec-09 08:04N 34°47' E 134°39'0 0.0
2017-Dec-09 05:04N 34°47' E 134°39'0 0.0
2017-Dec-08 22:16N 34°47' E 134°39'0 1.5
2017-Dec-08 22:00N 34°47' E 134°38'1 2.5
2017-Dec-08 21:30N 34°46' E 134°38'1 1.2
2017-Dec-08 21:00N 34°45' E 134°38'0 0.0
2017-Dec-08 20:18N 34°45' E 134°38'0 0.0
2017-Dec-08 20:00N 34°45' E 134°38'0 0.0
2017-Dec-08 19:30N 34°45' E 134°38'0 0.0
2017-Dec-08 18:54N 34°45' E 134°38'0 0.0
2017-Dec-08 18:12N 34°45' E 134°38'0 0.0
2017-Dec-08 18:00N 34°45' E 134°38'0 0.0
2017-Dec-08 16:48N 34°45' E 134°38'0 0.0
2017-Dec-08 16:24N 34°45' E 134°38'0 0.0
2017-Dec-08 16:00N 34°45' E 134°38'0 0.0
2017-Dec-08 15:30N 34°45' E 134°38'0 0.0
2017-Dec-08 14:54N 34°45' E 134°38'0 0.0
2017-Dec-08 14:24N 34°45' E 134°38'0 0.1
2017-Dec-08 13:54N 34°45' E 134°38'0 0.0
2017-Dec-08 12:48N 34°45' E 134°38'0 0.3
2017-Dec-08 12:30N 34°45' E 134°38'2 2.7
2017-Dec-08 11:52N 34°47' E 134°38'0 0.0
2017-Dec-08 09:39N 34°47' E 134°38'0 0.0
2017-Dec-08 04:21N 34°47' E 134°38'0 0.0
2017-Dec-08 01:39N 34°47' E 134°38'0 0.1
2017-Dec-08 00:42N 34°47' E 134°38'1 3.0
2017-Dec-08 00:30N 34°46' E 134°38'2 2.6
2017-Dec-07 23:54N 34°45' E 134°39'0 0.0
2017-Dec-07 22:57N 34°45' E 134°39'0 0.0
2017-Dec-07 22:24N 34°45' E 134°39'0 0.0
2017-Dec-07 21:54N 34°45' E 134°39'0 0.0
2017-Dec-07 21:30N 34°45' E 134°39'0 0.1
2017-Dec-07 20:54N 34°45' E 134°39'0 0.1
2017-Dec-07 20:30N 34°45' E 134°39'0 0.0
2017-Dec-07 20:00N 34°45' E 134°39'0 0.1
2017-Dec-07 19:30N 34°45' E 134°39'0 0.0
2017-Dec-07 17:24N 34°45' E 134°39'0 0.0
2017-Dec-07 16:54N 34°45' E 134°39'0 0.0
2017-Dec-07 16:24N 34°45' E 134°39'0 0.0
2017-Dec-07 16:00N 34°45' E 134°39'0 0.1
2017-Dec-07 15:30N 34°45' E 134°39'0 0.0
2017-Dec-07 14:48N 34°45' E 134°39'0 0.0
2017-Dec-07 14:18N 34°45' E 134°39'0 0.0
2017-Dec-07 13:12N 34°45' E 134°39'0 0.0
2017-Dec-07 12:18N 34°45' E 134°39'0 0.0
2017-Dec-07 12:00N 34°45' E 134°39'0 0.0
2017-Dec-07 10:40N 34°45' E 134°39'0 2.1
2017-Dec-07 10:30N 34°45' E 134°39'611.0
2017-Dec-07 10:00N 34°41' E 134°44'612.0
2017-Dec-07 09:30N 34°38' E 134°50'611.4
2017-Dec-07 09:00N 34°37' E 134°57'5 9.8
2017-Dec-07 08:30N 34°37' E 135°03'5 9.5
2017-Dec-07 08:00N 34°32' E 135°05'612.4
2017-Dec-07 07:30N 34°26' E 135°05'611.7
2017-Dec-07 07:00N 34°20' E 135°04'510.9
2017-Dec-07 06:30N 34°15' E 135°03'3 6.7
2017-Dec-07 06:00N 34°15' E 135°07'0 0.1
2017-Dec-07 05:30N 34°15' E 135°07'0 0.0
2017-Dec-07 04:58N 34°15' E 135°07'0 0.0
2017-Dec-07 04:30N 34°15' E 135°07'0 0.0
2017-Dec-07 04:00N 34°15' E 135°07'0 0.0
2017-Dec-07 03:30N 34°15' E 135°07'0 0.0
2017-Dec-07 03:01N 34°15' E 135°07'0 0.0
2017-Dec-07 02:30N 34°15' E 135°07'0 0.0
2017-Dec-07 02:00N 34°15' E 135°07'0 0.0
2017-Dec-07 01:30N 34°15' E 135°07'0 0.0
2017-Dec-07 01:00N 34°15' E 135°07'0 0.0
2017-Dec-07 00:28N 34°15' E 135°07'0 0.0
2017-Dec-07 00:01N 34°15' E 135°07'0 0.0
2017-Dec-06 23:30N 34°15' E 135°07'0 0.0
2017-Dec-06 23:00N 34°15' E 135°07'0 0.0
2017-Dec-06 22:30N 34°15' E 135°07'0 0.1
2017-Dec-06 22:00N 34°15' E 135°07'2 4.2
2017-Dec-06 21:30N 34°15' E 135°05'1 1.4
2017-Dec-06 21:00N 34°14' E 135°04'  
2017-Dec-04 10:30N 34°30' E 134°41'612.4
2017-Dec-04 10:00N 34°28' E 134°34'9411.7
2017-Dec-04 02:01N 34°01' E 132°46'114.0
2017-Dec-04 01:57N 33°60' E 132°45'613.9
2017-Dec-04 01:30N 33°56' E 132°40'713.5
2017-Dec-04 01:00N 33°51' E 132°34'713.2
2017-Dec-04 00:28N 33°46' E 132°27'613.4
2017-Dec-03 23:59N 33°43' E 132°21'2513.6
2017-Dec-03 22:10N 33°29' E 131°57'314.0
2017-Dec-03 21:57N 33°27' E 131°54'613.3
2017-Dec-03 21:30N 33°23' E 131°48'712.5
2017-Dec-03 20:58N 33°19' E 131°42'4 5.1
2017-Dec-03 20:17N 33°16' E 131°40'0 0.0
2017-Dec-03 16:23N 33°16' E 131°40'0 0.0
2017-Dec-03 14:42N 33°16' E 131°40'0 1.3
2017-Dec-03 14:25N 33°16' E 131°40'1 2.7
2017-Dec-03 14:00N 33°17' E 131°40'4 8.8
2017-Dec-03 13:30N 33°20' E 131°43'613.1
2017-Dec-03 13:01N 33°23' E 131°50'713.6
2017-Dec-03 12:30N 33°27' E 131°57'1013.7
2017-Dec-03 11:44N 33°34' E 132°07'313.2
2017-Dec-03 11:30N 33°35' E 132°10'713.1
2017-Dec-03 10:59N 33°39' E 132°16'612.7
2017-Dec-03 10:29N 33°43' E 132°22'1012.6
2017-Dec-03 09:40N 33°50' E 132°32'412.5
2017-Dec-03 09:23N 33°52' E 132°35'512.7
2017-Dec-03 09:00N 33°56' E 132°39'612.5
2017-Dec-03 08:30N 34°00' E 132°44'7611.8
2017-Dec-03 02:08N 34°25' E 134°10'212.7
2017-Dec-03 01:57N 34°25' E 134°13'612.8
2017-Dec-03 01:27N 34°24' E 134°21'713.5
2017-Dec-03 00:57N 34°27' E 134°28'613.6
2017-Dec-03 00:30N 34°29' E 134°35'713.9
2017-Dec-03 00:01N 34°32' E 134°43'815.6
2017-Dec-02 23:30N 34°35' E 134°52'816.0
2017-Dec-02 23:01N 34°37' E 135°01'713.5
2017-Dec-02 22:31N 34°32' E 135°05'714.2
2017-Dec-02 22:00N 34°25' E 135°03'713.7
2017-Dec-02 21:30N 34°18' E 134°60'714.2
2017-Dec-02 21:00N 34°11' E 134°60'713.9
2017-Dec-02 20:30N 34°04' E 135°00'714.0
2017-Dec-02 19:59N 33°57' E 135°01'100 8.1
2017-Dec-02 07:38N 34°41' E 136°50'313.9
2017-Dec-02 07:26N 34°43' E 136°48'613.6
2017-Dec-02 07:00N 34°48' E 136°45'713.7
2017-Dec-02 06:30N 34°55' E 136°46'713.4
2017-Dec-02 06:00N 35°01' E 136°50'2 4.7
2017-Dec-02 05:30N 35°03' E 136°50'0 0.0
2017-Dec-02 05:00N 35°03' E 136°50'0 0.0
2017-Dec-02 04:30N 35°03' E 136°50'0 0.0
2017-Dec-02 04:00N 35°03' E 136°50'0 0.0
2017-Dec-02 03:30N 35°03' E 136°50'0 0.0
2017-Dec-02 03:00N 35°03' E 136°50'0 0.0
2017-Dec-02 02:29N 35°03' E 136°50'0 0.0
2017-Dec-02 02:00N 35°03' E 136°50'0 0.0
2017-Dec-02 01:30N 35°03' E 136°50'0 0.0
2017-Dec-02 01:00N 35°03' E 136°50'0 0.0
2017-Dec-02 00:30N 35°03' E 136°50'0 0.0
2017-Dec-02 00:00N 35°03' E 136°50'0 0.0
2017-Dec-01 23:30N 35°03' E 136°50'1 1.1
2017-Dec-01 23:00N 35°03' E 136°50'4 8.3
2017-Dec-01 22:30N 34°59' E 136°49'2 3.5
2017-Dec-01 22:00N 34°58' E 136°47'0 0.0
2017-Dec-01 21:30N 34°58' E 136°47'0 0.0
2017-Dec-01 21:00N 34°58' E 136°47'0 0.3
2017-Dec-01 20:30N 34°57' E 136°47'510.7
2017-Dec-01 20:00N 34°52' E 136°47'611.9
2017-Dec-01 19:30N 34°46' E 136°48'612.1
2017-Dec-01 19:00N 34°41' E 136°52'1112.4
2017-Dec-01 18:06N 34°33' E 137°02'212.7
2017-Dec-01 17:54N 34°33' E 137°05'512.4
2017-Dec-01 17:30N 34°33' E 137°11'  

Dump ship's entire track history